Time;durP1;ratioP1;P1;durP2;ratioP2;P2;SDS_P1;SDS_P2;PMS_P1;PMS_P2;Temp;Humidity;BMP_temperature;BMP_pressure;BME280_temperature;BME280_humidity;BME280_pressure;Samples;Min_cycle;Max_cycle;Signal;HPM_P1;HPM_P2
2021/09/11 00:01:31;;;;;;;43.15;18.12;;;;;;;11.71;100.00;101101.34;1680761;85;21524;-87
2021/09/11 00:03:57;;;;;;;40.63;18.07;;;;;;;11.68;100.00;101097.80;1680854;85;21028;-89
2021/09/11 00:06:23;;;;;;;42.03;17.50;;;;;;;11.69;100.00;101094.84;1677922;84;20889;-89
2021/09/11 00:08:49;;;;;;;40.12;17.85;;;;;;;11.69;100.00;101096.19;1679995;84;21164;-89
2021/09/11 00:11:16;;;;;;;44.15;17.35;;;;;;;11.69;100.00;101096.73;1680179;85;20988;-90
2021/09/11 00:13:42;;;;;;;44.90;17.07;;;;;;;11.67;100.00;101094.80;1681582;85;21571;-89
2021/09/11 00:16:08;;;;;;;43.80;17.37;;;;;;;11.68;100.00;101096.45;1677613;84;20893;-90
2021/09/11 00:18:40;;;;;;;51.53;17.73;;;;;;;11.67;100.00;101093.45;1678873;84;21044;-88
2021/09/11 00:21:05;;;;;;;46.35;18.85;;;;;;;11.65;100.00;101099.13;1683654;84;21089;-88
2021/09/11 00:23:31;;;;;;;49.93;17.50;;;;;;;11.67;100.00;101098.86;1682325;85;21043;-88
2021/09/11 00:25:59;;;;;;;44.98;18.00;;;;;;;11.65;100.00;101099.13;1677480;84;20980;-87
2021/09/11 00:28:26;;;;;;;43.42;17.65;;;;;;;11.63;100.00;101097.75;1682312;84;21131;-87
2021/09/11 00:30:52;;;;;;;38.73;16.87;;;;;;;11.63;100.00;101103.14;1682749;84;21063;-87
2021/09/11 00:33:18;;;;;;;46.30;18.67;;;;;;;11.64;100.00;101098.02;1680596;85;21149;-86
2021/09/11 00:35:44;;;;;;;42.27;17.90;;;;;;;11.66;100.00;101095.88;1682785;85;21593;-89
2021/09/11 00:38:10;;;;;;;48.02;18.48;;;;;;;11.66;100.00;101095.34;1681379;85;21055;-87
2021/09/11 00:40:36;;;;;;;42.25;18.25;;;;;;;11.66;100.00;101102.09;1684634;85;20916;-89
2021/09/11 00:43:02;;;;;;;48.85;19.00;;;;;;;11.66;100.00;101099.94;1684832;84;21689;-87
2021/09/11 00:45:28;;;;;;;42.48;19.15;;;;;;;11.67;100.00;101095.61;1682919;84;21148;-88
2021/09/11 00:47:54;;;;;;;44.93;18.65;;;;;;;11.64;100.00;101096.12;1680553;85;20953;-87
2021/09/11 00:50:22;;;;;;;42.20;17.27;;;;;;;11.65;100.00;101096.94;1678172;84;20905;-85
2021/09/11 00:52:50;;;;;;;43.10;18.80;;;;;;;11.59;100.00;101089.34;1684145;84;21083;-86
2021/09/11 00:55:17;;;;;;;52.00;20.70;;;;;;;11.56;100.00;101093.91;1679821;84;21056;-88
2021/09/11 00:57:46;;;;;;;51.37;20.68;;;;;;;11.54;100.00;101100.08;1679749;85;21040;-87
2021/09/11 01:00:15;;;;;;;52.85;20.95;;;;;;;11.52;100.00;101100.31;1679693;85;21064;-87
2021/09/11 01:02:41;;;;;;;49.58;20.08;;;;;;;11.53;100.00;101099.78;1672056;85;21032;-87
2021/09/11 01:05:09;;;;;;;52.43;19.65;;;;;;;11.53;100.00;101101.13;1681082;84;21035;-88
2021/09/11 01:07:39;;;;;;;53.10;19.57;;;;;;;11.48;100.00;101102.45;1680441;84;21016;-88
2021/09/11 01:10:06;;;;;;;55.73;23.05;;;;;;;11.44;100.00;101104.84;1684288;84;21993;-87
2021/09/11 01:12:33;;;;;;;64.62;21.42;;;;;;;11.48;100.00;101099.75;1682517;85;21091;-86
2021/09/11 01:15:11;;;;;;;53.73;21.60;;;;;;;11.49;100.00;101099.48;1682380;85;21039;-87
2021/09/11 01:17:41;;;;;;;47.78;20.00;;;;;;;11.47;100.00;101099.45;1593386;88;21594;-88
2021/09/11 01:20:08;;;;;;;56.92;20.40;;;;;;;11.41;100.00;101096.41;1592662;90;21012;-87
2021/09/11 01:22:34;;;;;;;54.80;20.82;;;;;;;11.39;100.00;101098.57;1592599;90;21163;-87
2021/09/11 01:25:04;;;;;;;55.60;21.07;;;;;;;11.38;100.00;101104.47;1592595;90;21036;-87
2021/09/11 01:27:31;;;;;;;52.60;20.92;;;;;;;11.30;100.00;101099.01;1592568;90;21126;-88
2021/09/11 01:30:04;;;;;;;50.73;20.25;;;;;;;11.24;100.00;101103.25;1592324;90;21131;-88
2021/09/11 01:32:32;;;;;;;46.55;20.30;;;;;;;11.18;100.00;101095.63;1592729;90;21212;-88
2021/09/11 01:34:58;;;;;;;46.77;20.08;;;;;;;11.19;100.00;101097.79;1570781;90;21148;-89
2021/09/11 01:37:24;;;;;;;42.58;19.65;;;;;;;11.19;100.00;101102.64;1592540;90;21036;-88
2021/09/11 01:39:50;;;;;;;51.25;19.62;;;;;;;11.18;100.00;101098.84;1592478;90;20944;-89
2021/09/11 01:42:25;;;;;;;52.27;20.62;;;;;;;11.17;100.00;101098.56;1592639;90;20960;-89
2021/09/11 01:44:58;;;;;;;47.98;20.80;;;;;;;11.16;100.00;101096.41;1592638;90;21043;-88
2021/09/11 01:47:24;;;;;;;52.48;21.48;;;;;;;11.17;100.00;101101.27;1578596;90;21229;-88
2021/09/11 01:49:51;;;;;;;52.53;19.80;;;;;;;11.14;100.00;101099.88;1578648;90;21114;-88
2021/09/11 01:52:17;;;;;;;48.85;20.55;;;;;;;11.09;100.00;101102.00;1578630;90;21123;-88
2021/09/11 01:54:43;;;;;;;49.65;21.37;;;;;;;11.03;100.00;101105.70;1578664;90;20979;-87
2021/09/11 01:57:11;;;;;;;55.28;22.35;;;;;;;11.00;100.00;101106.70;1578615;90;21065;-88
2021/09/11 01:59:38;;;;;;;44.40;20.60;;;;;;;10.94;100.00;101107.17;1578711;90;21041;-89
2021/09/11 02:02:06;;;;;;;46.58;19.67;;;;;;;10.91;100.00;101103.62;1578416;90;20987;-87
2021/09/11 02:04:33;;;;;;;47.90;20.45;;;;;;;10.89;100.00;101101.73;1578525;91;21797;-87
2021/09/11 02:07:02;;;;;;;49.08;20.57;;;;;;;10.88;100.00;101095.52;1578631;90;21696;-88
2021/09/11 02:09:28;;;;;;;51.80;20.02;;;;;;;10.85;100.00;101104.11;1578359;89;21022;-88
2021/09/11 02:11:54;;;;;;;48.50;19.90;;;;;;;10.84;100.00;101107.85;1578366;90;21924;-88
2021/09/11 02:14:20;;;;;;;48.68;20.65;;;;;;;10.84;100.00;101109.73;1628357;86;21535;-92
2021/09/11 02:16:47;;;;;;;48.90;20.10;;;;;;;10.83;100.00;101110.81;1670040;86;21134;-88
2021/09/11 02:19:13;;;;;;;50.52;20.10;;;;;;;10.81;100.00;101107.55;1670292;86;21332;-88
2021/09/11 02:21:40;;;;;;;43.60;20.57;;;;;;;10.79;100.00;101115.86;1670212;86;21055;-88
2021/09/11 02:24:07;;;;;;;44.80;20.85;;;;;;;10.78;100.00;101119.63;1670147;86;21145;-87
2021/09/11 02:26:33;;;;;;;57.73;23.10;;;;;;;10.79;100.00;101116.40;1670053;86;21032;-87
2021/09/11 02:29:00;;;;;;;51.92;22.40;;;;;;;10.78;100.00;101120.98;1670020;86;21103;-86
2021/09/11 02:31:26;;;;;;;47.23;20.40;;;;;;;10.80;100.00;101119.41;1670094;85;21059;-87
2021/09/11 02:33:52;;;;;;;53.68;21.68;;;;;;;10.74;100.00;101121.20;1670112;86;21095;-86
2021/09/11 02:36:18;;;;;;;48.08;21.52;;;;;;;10.69;100.00;101122.47;1670111;86;21065;-86
2021/09/11 02:38:45;;;;;;;50.28;21.40;;;;;;;10.61;100.00;101119.66;1670102;86;20996;-87
2021/09/11 02:41:11;;;;;;;49.48;21.60;;;;;;;10.56;100.00;101119.59;1670426;86;21067;-88
2021/09/11 02:43:37;;;;;;;50.10;21.50;;;;;;;10.52;100.00;101123.02;1673476;85;21567;-86
2021/09/11 02:46:03;;;;;;;52.55;21.62;;;;;;;10.45;100.00;101121.84;1674215;85;20976;-87
2021/09/11 02:48:29;;;;;;;48.50;21.80;;;;;;;10.40;100.00;101119.88;1682562;85;21201;-87
2021/09/11 02:51:07;;;;;;;50.52;23.12;;;;;;;10.35;100.00;101117.63;1682799;85;20957;-87
2021/09/11 02:53:33;;;;;;;52.65;22.13;;;;;;;10.30;100.00;101120.27;1682864;84;21087;-87
2021/09/11 02:55:59;;;;;;;48.23;20.82;;;;;;;10.27;100.00;101120.22;1682897;85;20975;-86
2021/09/11 02:58:24;;;;;;;58.38;24.77;;;;;;;10.20;100.00;101120.33;1682673;85;20892;-87
2021/09/11 03:00:52;;;;;;;59.08;24.65;;;;;;;10.21;100.00;101119.28;1682831;85;21113;-87
2021/09/11 03:03:18;;;;;;;57.53;23.42;;;;;;;10.26;100.00;101120.42;1682512;85;20985;-87
2021/09/11 03:05:44;;;;;;;61.85;26.48;;;;;;;10.28;100.00;101121.03;1682693;85;20981;-87
2021/09/11 03:08:10;;;;;;;61.80;25.27;;;;;;;10.25;100.00;101126.34;1682745;85;21496;-86
2021/09/11 03:10:39;;;;;;;55.48;25.20;;;;;;;10.24;100.00;101123.38;1681822;84;20952;-86
2021/09/11 03:13:05;;;;;;;58.95;23.67;;;;;;;10.27;100.00;101131.53;1680099;85;21708;-87
2021/09/11 03:15:31;;;;;;;62.50;25.68;;;;;;;10.32;100.00;101128.90;1684351;85;20908;-91
2021/09/11 03:17:57;;;;;;;59.90;25.27;;;;;;;10.28;100.00;101127.77;1680234;85;21621;-87
2021/09/11 03:20:22;;;;;;;59.08;24.98;;;;;;;10.22;100.00;101126.83;1682043;84;20897;-86
2021/09/11 03:22:48;;;;;;;61.73;24.27;;;;;;;10.20;100.00;101134.33;1685110;85;21459;-87
2021/09/11 03:25:14;;;;;;;53.85;21.87;;;;;;;10.17;100.00;101132.94;1685059;84;21939;-87
2021/09/11 03:27:40;;;;;;;53.38;22.67;;;;;;;10.16;100.00;101140.73;1681730;85;21032;-87
2021/09/11 03:30:09;;;;;;;54.85;23.90;;;;;;;10.20;100.00;101139.72;1682736;85;21052;-87
2021/09/11 03:32:35;;;;;;;56.85;25.30;;;;;;;10.25;100.00;101142.50;1680803;85;21080;-87
2021/09/11 03:35:01;;;;;;;62.55;25.10;;;;;;;10.31;100.00;101144.78;1683999;84;20885;-87
2021/09/11 03:37:27;;;;;;;55.85;24.90;;;;;;;10.33;100.00;101146.71;1681820;85;21511;-87
2021/09/11 03:39:52;;;;;;;63.58;24.87;;;;;;;10.40;100.00;101147.36;1683827;84;20976;-87
2021/09/11 03:42:18;;;;;;;61.85;26.52;;;;;;;10.46;100.00;101143.14;1681703;85;20988;-92
2021/09/11 03:44:44;;;;;;;67.97;26.82;;;;;;;10.60;100.00;101150.91;1682173;85;20924;-87
2021/09/11 03:47:10;;;;;;;62.03;26.30;;;;;;;10.71;100.00;101151.86;1670991;85;20885;-86
2021/09/11 03:49:35;;;;;;;66.95;27.42;;;;;;;10.78;100.00;101146.59;1682108;84;21069;-86
2021/09/11 03:52:02;;;;;;;69.05;28.55;;;;;;;10.84;100.00;101146.95;1684995;85;20972;-86
2021/09/11 03:54:28;;;;;;;73.07;30.00;;;;;;;10.97;100.00;101146.30;1681391;85;21053;-86
2021/09/11 03:56:54;;;;;;;68.20;28.35;;;;;;;11.12;100.00;101151.94;1679223;84;21034;-87
2021/09/11 03:59:19;;;;;;;70.97;28.85;;;;;;;11.23;100.00;101150.97;1684068;84;21072;-86
2021/09/11 04:01:45;;;;;;;64.97;27.17;;;;;;;11.41;100.00;101151.20;1685031;85;21156;-87
2021/09/11 04:04:11;;;;;;;69.82;28.70;;;;;;;11.54;100.00;101147.31;1685062;84;21633;-87
2021/09/11 04:06:37;;;;;;;79.37;31.33;;;;;;;11.71;100.00;101149.94;1667146;85;20885;-87
2021/09/11 04:09:03;;;;;;;86.55;31.75;;;;;;;12.08;100.00;101147.90;1682647;85;20937;-87
2021/09/11 04:11:29;;;;;;;81.55;36.80;;;;;;;12.95;100.00;101148.83;1682360;84;21692;-87
2021/09/11 04:13:55;;;;;;;85.35;33.88;;;;;;;13.98;100.00;101148.70;1678938;85;21620;-87
2021/09/11 04:16:21;;;;;;;77.12;33.38;;;;;;;15.00;100.00;101149.22;1677741;85;20893;-86
2021/09/11 04:18:47;;;;;;;76.35;30.57;;;;;;;16.00;100.00;101145.52;1678140;85;20912;-91
2021/09/11 04:21:13;;;;;;;65.30;30.95;;;;;;;16.93;100.00;101144.17;1677416;84;21507;-86
2021/09/11 04:23:42;;;;;;;66.67;29.48;;;;;;;17.75;100.00;101138.51;1681507;85;21540;-85
2021/09/11 04:26:14;;;;;;;64.70;29.18;;;;;;;18.63;100.00;101142.86;1684604;85;21925;-86
2021/09/11 04:28:40;;;;;;;58.15;28.05;;;;;;;19.50;100.00;101142.53;1676791;85;21071;-85
2021/09/11 04:31:06;;;;;;;57.65;26.35;;;;;;;20.38;100.00;101137.52;1682245;85;20913;-83
2021/09/11 04:33:32;;;;;;;57.10;26.37;;;;;;;21.19;100.00;101135.08;1677955;85;21535;-88
2021/09/11 04:35:58;;;;;;;53.25;23.80;;;;;;;21.95;100.00;101135.30;1681388;84;20994;-87
2021/09/11 04:38:24;;;;;;;45.80;22.32;;;;;;;22.76;100.00;101126.25;1677593;84;21646;-85
2021/09/11 04:40:50;;;;;;;45.35;20.15;;;;;;;23.10;98.69;101126.70;1678785;85;21055;-86
2021/09/11 04:43:16;;;;;;;45.30;21.42;;;;;;;23.49;99.66;101128.81;1684147;85;20905;-87
2021/09/11 04:45:44;;;;;;;48.08;22.17;;;;;;;24.16;98.81;101128.95;1679377;85;20949;-88
2021/09/11 04:48:11;;;;;;;46.25;21.65;;;;;;;24.81;88.96;101128.66;1680753;85;21036;-88
2021/09/11 04:50:37;;;;;;;46.05;21.00;;;;;;;25.48;85.46;101129.23;1682043;85;21148;-86
2021/09/11 04:53:03;;;;;;;46.65;21.17;;;;;;;26.17;74.43;101127.30;1650358;85;21036;-87
2021/09/11 04:55:29;;;;;;;40.73;20.85;;;;;;;26.81;69.19;101121.28;1681734;85;21067;-85
2021/09/11 04:57:55;;;;;;;46.73;22.02;;;;;;;27.49;64.10;101120.12;1680673;84;20972;-87
2021/09/11 05:00:22;;;;;;;42.67;20.62;;;;;;;27.87;55.87;101117.77;1681142;85;21531;-86
2021/09/11 05:02:48;;;;;;;40.50;20.57;;;;;;;28.42;56.26;101110.94;1673657;85;21912;-84
2021/09/11 05:05:13;;;;;;;39.40;20.80;;;;;;;28.56;49.51;101110.39;1680691;85;20963;-86
2021/09/11 05:07:39;;;;;;;41.73;19.92;;;;;;;28.92;47.87;101102.05;1673430;84;20968;-86
2021/09/11 05:10:06;;;;;;;38.65;19.70;;;;;;;29.47;48.32;101099.48;1682276;85;21550;-85
2021/09/11 05:12:32;;;;;;;41.70;19.62;;;;;;;30.01;44.71;101094.02;1679337;85;21032;-85
2021/09/11 05:14:58;;;;;;;39.30;19.12;;;;;;;30.00;42.01;101099.34;1680389;85;21126;-85
2021/09/11 05:17:24;;;;;;;41.48;18.55;;;;;;;30.16;43.28;101101.91;1682912;84;21301;-85
2021/09/11 05:19:50;;;;;;;29.32;16.12;;;;;;;30.52;40.57;101096.91;1680357;84;20976;-85
2021/09/11 05:22:15;;;;;;;31.45;15.95;;;;;;;30.71;40.72;101103.45;1680813;85;21593;-85
2021/09/11 05:24:42;;;;;;;32.78;16.37;;;;;;;30.80;39.03;101102.55;1685142;85;20850;-86
2021/09/11 05:27:08;;;;;;;32.58;16.75;;;;;;;31.30;38.21;101107.05;1680024;85;21182;-85
2021/09/11 05:29:34;;;;;;;32.63;17.00;;;;;;;31.39;38.22;101109.52;1680194;85;21009;-84
2021/09/11 05:32:04;;;;;;;26.52;15.70;;;;;;;32.18;37.90;101109.23;1679342;84;21054;-85
2021/09/11 05:34:29;;;;;;;38.88;16.12;;;;;;;32.95;36.53;101106.88;1679177;84;21028;-85
2021/09/11 05:36:55;;;;;;;29.32;16.10;;;;;;;33.84;36.48;101107.84;1682583;85;21665;-84
2021/09/11 05:39:21;;;;;;;25.85;14.03;;;;;;;34.24;32.84;101106.44;1680539;85;21820;-83
2021/09/11 05:41:49;;;;;;;26.23;15.48;;;;;;;34.38;33.66;101107.70;1684422;85;20908;-87
2021/09/11 05:44:15;;;;;;;27.60;14.73;;;;;;;34.64;32.52;101106.14;1675951;85;21063;-85
2021/09/11 05:46:41;;;;;;;26.23;14.63;;;;;;;35.23;31.03;101109.58;1658305;85;20924;-85
2021/09/11 05:49:07;;;;;;;21.55;13.35;;;;;;;35.09;30.87;101105.52;1670004;85;20960;-84
2021/09/11 05:51:33;;;;;;;25.45;13.68;;;;;;;35.18;30.55;101106.43;1666876;86;21241;-83
2021/09/11 05:53:59;;;;;;;25.10;12.45;;;;;;;35.47;29.17;101112.50;1679675;85;20861;-85
2021/09/11 05:56:25;;;;;;;26.17;11.93;;;;;;;35.40;29.44;101109.19;1681427;85;21055;-85
2021/09/11 05:58:51;;;;;;;20.85;12.65;;;;;;;35.98;29.11;101107.08;1681224;85;20978;-86
2021/09/11 06:01:16;;;;;;;23.90;11.60;;;;;;;36.00;29.00;101106.03;1681379;85;21215;-84
2021/09/11 06:03:42;;;;;;;23.07;12.33;;;;;;;36.03;28.63;101105.19;1681046;85;21018;-83
2021/09/11 06:06:08;;;;;;;23.20;11.12;;;;;;;36.34;28.00;101104.55;1681237;85;21054;-83
2021/09/11 06:08:34;;;;;;;18.80;10.23;;;;;;;36.05;27.52;101107.00;1681436;85;20983;-83
2021/09/11 06:11:00;;;;;;;19.77;10.80;;;;;;;35.81;28.35;101104.09;1681156;84;20975;-83
2021/09/11 06:13:26;;;;;;;19.02;10.05;;;;;;;36.39;28.81;101102.05;1681334;85;21518;-84
2021/09/11 06:15:52;;;;;;;17.65;10.55;;;;;;;37.20;26.87;101109.48;1681302;85;21076;-82
2021/09/11 06:18:18;;;;;;;20.32;10.35;;;;;;;37.37;26.15;101108.95;1681143;85;20876;-87
2021/09/11 06:20:44;;;;;;;17.75;10.82;;;;;;;37.61;25.85;101106.88;1681755;85;20915;-85
2021/09/11 06:23:10;;;;;;;18.02;10.80;;;;;;;37.45;25.83;101110.41;1673214;85;20885;-85
2021/09/11 06:25:36;;;;;;;16.17;10.93;;;;;;;37.49;25.92;101111.76;1672461;85;21637;-85
2021/09/11 06:28:03;;;;;;;20.90;11.80;;;;;;;37.53;25.79;101117.30;1676261;85;21146;-85
2021/09/11 06:30:29;;;;;;;21.60;11.97;;;;;;;37.98;25.66;101116.77;1679027;85;21027;-86
2021/09/11 06:32:55;;;;;;;20.25;12.23;;;;;;;38.49;25.08;101116.56;1680395;85;21110;-85
2021/09/11 06:35:21;;;;;;;24.98;13.15;;;;;;;38.07;24.31;101119.16;1655977;85;20903;-83
2021/09/11 06:37:47;;;;;;;25.75;14.47;;;;;;;38.77;25.89;101114.23;1681286;85;21646;-85
2021/09/11 06:40:13;;;;;;;27.10;15.00;;;;;;;38.98;23.47;101115.74;1681023;85;21099;-85
2021/09/11 06:42:39;;;;;;;30.40;16.45;;;;;;;39.27;24.10;101119.34;1681586;85;21086;-85
2021/09/11 06:45:06;;;;;;;30.20;18.52;;;;;;;39.87;22.59;101120.88;1681681;85;20955;-84
2021/09/11 06:47:32;;;;;;;31.93;19.15;;;;;;;39.60;23.17;101116.41;1681870;84;21033;-85
2021/09/11 06:49:58;;;;;;;32.65;20.92;;;;;;;40.35;21.99;101123.19;1682052;84;20870;-85
2021/09/11 06:52:24;;;;;;;35.90;19.00;;;;;;;40.45;22.38;101124.07;1680457;85;21058;-84
2021/09/11 06:54:50;;;;;;;44.85;21.52;;;;;;;41.27;22.07;101119.23;1681521;84;21040;-85
2021/09/11 06:57:16;;;;;;;29.05;18.92;;;;;;;41.61;21.25;101123.23;1682654;84;20918;-85
2021/09/11 06:59:42;;;;;;;35.60;19.45;;;;;;;42.01;20.91;101115.43;1679388;84;21078;-86
2021/09/11 07:02:08;;;;;;;33.40;20.62;;;;;;;41.82;19.73;101123.64;1683751;85;21080;-85
2021/09/11 07:04:33;;;;;;;33.00;21.17;;;;;;;41.31;21.02;101127.58;1685145;84;21109;-85
2021/09/11 07:06:59;;;;;;;38.78;20.95;;;;;;;42.20;21.04;101127.59;1685126;85;21652;-86
2021/09/11 07:09:25;;;;;;;30.88;19.25;;;;;;;42.91;19.21;101128.71;1685117;85;20962;-85
2021/09/11 07:11:51;;;;;;;32.00;17.07;;;;;;;42.40;19.31;101130.05;1684039;85;20863;-85
2021/09/11 07:14:17;;;;;;;26.25;16.42;;;;;;;42.39;19.97;101129.27;1680155;84;21131;-85
2021/09/11 07:16:44;;;;;;;23.52;16.12;;;;;;;42.86;19.54;101128.09;1682176;85;21118;-85
2021/09/11 07:19:10;;;;;;;22.15;16.35;;;;;;;43.66;18.81;101116.84;1681069;84;21017;-85
2021/09/11 07:21:37;;;;;;;19.77;13.60;;;;;;;43.30;18.33;101126.36;1681527;84;20954;-84
2021/09/11 07:24:04;;;;;;;19.80;12.73;;;;;;;42.16;18.38;101126.33;1680055;84;21053;-85
2021/09/11 07:26:30;;;;;;;17.23;12.78;;;;;;;41.36;19.28;101115.67;1681796;84;21116;-85
2021/09/11 07:28:59;;;;;;;18.73;12.45;;;;;;;41.95;19.35;101118.08;1685021;85;21147;-85
2021/09/11 07:31:25;;;;;;;18.85;11.53;;;;;;;43.12;18.96;101117.82;1685150;84;21057;-84
2021/09/11 07:33:50;;;;;;;19.35;11.53;;;;;;;42.78;18.78;101111.23;1667375;85;20973;-85
2021/09/11 07:36:17;;;;;;;15.20;11.20;;;;;;;43.17;18.24;101109.34;1683568;84;21157;-85
2021/09/11 07:38:44;;;;;;;17.05;11.28;;;;;;;43.18;18.13;101110.27;1681536;84;21564;-84
2021/09/11 07:41:09;;;;;;;18.73;10.70;;;;;;;43.59;17.96;101108.00;1684773;84;21304;-84
2021/09/11 07:43:35;;;;;;;13.05;10.18;;;;;;;44.15;17.73;101099.44;1680257;84;20972;-84
2021/09/11 07:46:02;;;;;;;12.95;10.70;;;;;;;44.49;17.52;101105.88;1684187;84;21673;-82
2021/09/11 07:48:28;;;;;;;11.95;9.35;;;;;;;45.30;17.10;101102.84;1681279;85;21540;-85
2021/09/11 07:50:55;;;;;;;14.53;9.75;;;;;;;45.35;15.89;101099.94;1679236;85;21004;-84
2021/09/11 07:53:21;;;;;;;17.25;9.65;;;;;;;43.49;16.82;101102.19;1679151;84;21173;-85
2021/09/11 07:55:49;;;;;;;15.08;9.20;;;;;;;43.07;17.38;101112.80;1678189;83;21024;-85
2021/09/11 07:58:21;;;;;;;10.98;8.15;;;;;;;42.80;17.29;101103.65;1688317;83;21058;-85
2021/09/11 08:00:55;;;;;;;10.08;8.43;;;;;;;43.33;17.27;101096.24;1715558;83;20995;-86
2021/09/11 08:03:29;;;;;;;13.08;8.53;;;;;;;43.10;16.99;101099.09;1710278;83;21597;-87
2021/09/11 08:06:07;;;;;;;9.98;7.83;;;;;;;44.02;16.69;101091.77;1705418;84;21444;-86
2021/09/11 08:08:34;;;;;;;10.03;7.35;;;;;;;43.54;16.78;101093.06;1685330;84;20985;-87
2021/09/11 08:11:09;;;;;;;9.45;7.40;;;;;;;43.30;16.53;101094.33;1705794;84;21070;-87
2021/09/11 08:13:40;;;;;;;10.13;7.58;;;;;;;42.26;16.91;101088.89;1707164;84;21016;-85
2021/09/11 08:16:15;;;;;;;10.63;8.10;;;;;;;42.04;17.56;101089.00;1668373;83;21019;-87
2021/09/11 08:18:50;;;;;;;9.45;7.33;;;;;;;42.88;16.93;101083.64;1662556;85;21108;-87
2021/09/11 08:21:18;;;;;;;14.35;7.17;;;;;;;42.40;17.02;101083.28;1637546;86;22359;-85
2021/09/11 08:23:49;;;;;;;14.85;6.90;;;;;;;42.39;17.14;101078.89;1621641;88;21074;-86
2021/09/11 08:26:16;;;;;;;8.78;7.00;;;;;;;42.43;16.86;101079.52;1642499;86;21169;-85
2021/09/11 08:28:51;;;;;;;10.78;7.17;;;;;;;42.48;16.37;101079.50;1636969;86;21038;-86
2021/09/11 08:31:24;;;;;;;9.28;7.72;;;;;;;41.92;16.59;101072.28;1637791;86;21584;-85
2021/09/11 08:33:55;;;;;;;8.98;6.42;;;;;;;42.95;16.54;101064.09;1626311;86;21129;-87
2021/09/11 08:36:28;;;;;;;10.98;7.00;;;;;;;44.07;15.88;101052.76;1617907;88;21039;-86
2021/09/11 08:39:01;;;;;;;13.95;7.83;;;;;;;43.28;16.33;101058.56;1616160;88;20995;-86
2021/09/11 08:41:37;;;;;;;8.48;6.85;;;;;;;43.73;15.93;101051.16;1618012;88;21090;-85
2021/09/11 08:44:11;;;;;;;9.75;7.05;;;;;;;43.05;15.29;101053.69;1618168;88;21195;-87
2021/09/11 08:46:42;;;;;;;11.25;7.05;;;;;;;41.85;16.29;101057.59;1597409;88;21525;-85
2021/09/11 08:49:10;;;;;;;9.63;7.62;;;;;;;41.65;16.85;101053.13;1614607;88;21055;-83
2021/09/11 08:54:21;;;;;;;7.97;6.30;;;;;;;42.55;15.96;101047.39;1512872;92;21244;-85
2021/09/11 08:56:54;;;;;;;7.90;5.80;;;;;;;42.38;15.97;101050.37;1538369;93;21330;-85
2021/09/11 08:59:28;;;;;;;8.83;5.70;;;;;;;41.61;16.10;101041.77;1546578;91;21109;-85
2021/09/11 09:02:06;;;;;;;7.40;6.10;;;;;;;40.77;17.36;101038.20;1533516;93;21545;-85
2021/09/11 09:04:45;;;;;;;12.10;5.62;;;;;;;40.77;17.27;101036.79;1538662;93;21065;-86
2021/09/11 09:07:12;;;;;;;10.75;5.83;;;;;;;40.67;17.49;101029.50;1538562;93;21153;-86
2021/09/11 09:09:41;;;;;;;7.58;5.67;;;;;;;40.37;17.59;101031.09;1538687;93;21916;-86
2021/09/11 09:12:14;;;;;;;8.35;5.58;;;;;;;40.30;17.93;101029.94;1542630;91;21054;-84
2021/09/11 09:14:59;;;;;;;9.88;6.05;;;;;;;40.27;17.73;101026.61;1552816;92;21145;-86
2021/09/11 09:17:41;;;;;;;10.03;5.37;;;;;;;40.00;17.70;101023.45;1463946;98;21043;-85
2021/09/11 09:20:17;;;;;;;10.72;5.35;;;;;;;40.42;17.74;101019.84;1421853;100;21628;-84
2021/09/11 09:22:46;;;;;;;13.15;5.50;;;;;;;40.98;16.96;101014.81;1421969;101;21879;-86
2021/09/11 09:25:27;;;;;;;10.00;4.80;;;;;;;40.75;16.59;101018.10;1421814;101;21252;-84
2021/09/11 09:28:01;;;;;;;12.33;5.22;;;;;;;39.81;18.18;101019.02;1421773;101;21082;-85
2021/09/11 09:30:41;;;;;;;10.90;5.35;;;;;;;39.34;17.70;101013.23;1421846;101;21660;-86
2021/09/11 09:33:11;;;;;;;9.93;5.10;;;;;;;39.17;18.45;101004.81;1352025;106;21621;-85
2021/09/11 09:35:37;;;;;;;7.67;4.90;;;;;;;38.61;18.81;101014.41;1316135;109;21205;-86
2021/09/11 09:38:09;;;;;;;12.33;4.80;;;;;;;38.53;18.40;101004.57;1338759;107;21074;-85
2021/09/11 09:40:47;;;;;;;12.45;5.28;;;;;;;38.69;18.59;100998.12;1338718;107;21261;-84
2021/09/11 09:43:35;;;;;;;9.33;5.12;;;;;;;38.58;18.15;101004.04;1326805;108;21163;-84
2021/09/11 09:46:11;;;;;;;9.83;4.87;;;;;;;36.71;19.91;100999.63;1326846;108;21663;-84
2021/09/11 09:48:39;;;;;;;13.72;4.72;;;;;;;35.84;20.93;100996.65;1326602;108;21271;-84
2021/09/11 09:51:12;;;;;;;11.65;4.60;;;;;;;35.49;21.22;101000.13;1324898;107;21180;-84
2021/09/11 09:53:41;;;;;;;7.22;4.60;;;;;;;35.21;21.12;101001.91;1309009;108;21143;-85
2021/09/11 09:56:08;;;;;;;9.25;4.67;;;;;;;35.14;21.14;101009.80;1323879;108;21115;-88
2021/09/11 09:58:36;;;;;;;11.53;4.62;;;;;;;35.29;21.20;100999.81;1341133;106;21178;-86
2021/09/11 10:01:03;;;;;;;10.65;4.45;;;;;;;35.23;21.56;100992.48;1339561;107;21141;-86
2021/09/11 10:03:29;;;;;;;8.75;4.78;;;;;;;35.49;21.11;100989.53;1339573;107;21194;-88
2021/09/11 10:06:18;;;;;;;12.68;5.00;;;;;;;34.49;22.01;100988.66;1381143;101;21595;-88
2021/09/11 10:08:48;;;;;;;16.17;5.55;;;;;;;34.10;21.98;100984.22;1359947;105;21183;-88
2021/09/11 10:11:15;;;;;;;11.20;5.72;;;;;;;33.62;22.80;100975.16;1360185;105;21108;-88
2021/09/11 10:13:57;;;;;;;9.30;4.75;;;;;;;33.40;22.88;100972.27;1359813;104;21230;-87
2021/09/11 10:16:32;;;;;;;;;;;;;;;33.16;23.08;100973.38;1413585;101;21085;-89
2021/09/11 10:18:58;;;;;;;17.75;4.62;;;;;;;32.82;22.76;100977.86;1413328;101;20202;-88
2021/09/11 10:21:38;;;;;;;9.88;4.72;;;;;;;32.37;23.09;100971.95;1468672;97;20934;-87
2021/09/11 10:24:15;;;;;;;12.03;4.50;;;;;;;31.77;24.11;100975.69;1471658;96;21132;-89
2021/09/11 10:26:50;;;;;;;23.02;7.62;;;;;;;31.81;24.16;100965.34;1469597;97;21172;-92
2021/09/11 10:29:37;;;;;;;14.83;7.12;;;;;;;32.11;24.09;100969.16;1519618;92;21042;-90
2021/09/11 10:32:17;;;;;;;10.88;4.17;;;;;;;32.09;24.17;100969.35;1549831;92;21635;-90
2021/09/11 10:35:07;;;;;;;11.12;4.10;;;;;;;31.97;24.13;100966.36;1541220;92;21090;-88
2021/09/11 10:37:44;;;;;;;12.73;5.00;;;;;;;31.76;24.30;100961.53;1551456;92;21173;-88
2021/09/11 10:40:30;;;;;;;12.80;4.80;;;;;;;31.81;24.50;100957.58;1532022;92;21109;-87
2021/09/11 10:43:07;;;;;;;11.80;4.80;;;;;;;31.30;25.15;100956.65;1514135;94;21141;-89
2021/09/11 10:46:01;;;;;;;8.80;4.55;;;;;;;30.97;24.97;100952.13;1528710;89;21189;-88
2021/09/11 10:48:43;;;;;;;11.97;4.78;;;;;;;31.10;25.83;100953.39;1589458;90;21602;-89
2021/09/11 10:51:24;;;;;;;10.55;4.55;;;;;;;31.16;25.86;100951.81;1586526;90;21633;-88
2021/09/11 10:54:23;;;;;;;10.38;4.00;;;;;;;31.21;25.13;100952.05;1603081;88;21296;-87
2021/09/11 10:56:52;;;;;;;8.03;4.37;;;;;;;31.56;24.83;100945.80;1625233;88;21100;-88
2021/09/11 10:59:22;;;;;;;8.05;3.90;;;;;;;32.11;24.07;100938.48;1619600;88;21572;-91
2021/09/11 11:02:24;;;;;;;10.53;4.62;;;;;;;32.34;23.60;100931.69;1619399;88;21621;-87
2021/09/11 11:04:55;;;;;;;11.28;4.50;;;;;;;32.24;24.30;100936.67;1598853;89;21642;-85
2021/09/11 11:07:28;;;;;;;9.78;4.40;;;;;;;31.97;24.51;100929.32;1554764;92;21237;-89
2021/09/11 11:10:04;;;;;;;9.58;4.87;;;;;;;32.15;24.17;100927.34;1554724;91;20959;-90
2021/09/11 11:12:37;;;;;;;14.15;4.62;;;;;;;32.10;23.71;100926.34;1528942;92;21114;-89
2021/09/11 11:15:05;;;;;;;;;;;;;;;31.51;24.07;100925.28;1544860;93;21114;-89
2021/09/11 11:17:38;;;;;;;10.15;4.50;;;;;;;31.60;25.02;100929.88;1542625;93;20175;-90
2021/09/11 11:20:07;;;;;;;12.93;4.50;;;;;;;32.02;24.12;100917.17;1542523;93;21567;-90